Time,TemperatureF,DewpointF,PressureIn,WindDirection,WindDirectionDegrees,WindSpeedMPH,WindSpeedGustMPH,Humidity,HourlyPrecipIn,Conditions,Clouds,dailyrainin,SoftwareType,DateUTC
2013-04-22 00:00:00,48.0,39.8,30.50,ENE,77,5.0,8.0,73,0.00,,---,0.00,VWS V14.01,2013-04-22 04:00:00,
2013-04-22 00:01:00,48.0,39.8,30.50,ENE,78,3.0,5.0,73,0.00,,---,0.00,VWS V14.01,2013-04-22 04:01:00,
2013-04-22 00:06:00,47.8,39.6,30.50,ENE,78,7.0,7.0,73,0.00,,---,0.00,VWS V14.01,2013-04-22 04:06:00,
2013-04-22 00:11:00,47.6,39.7,30.50,East,81,5.0,6.0,74,0.00,,---,0.00,VWS V14.01,2013-04-22 04:11:00,
2013-04-22 00:16:00,47.4,39.5,30.51,ENE,76,4.0,7.0,74,0.00,,---,0.00,VWS V14.01,2013-04-22 04:16:00,
2013-04-22 00:21:00,47.2,39.3,30.50,East,81,8.0,10.0,74,0.00,,---,0.00,VWS V14.01,2013-04-22 04:21:00,
2013-04-22 00:26:00,47.1,39.6,30.51,ENE,67,5.0,8.0,75,0.00,,---,0.00,VWS V14.01,2013-04-22 04:26:00,
2013-04-22 00:31:00,46.9,39.4,30.51,ENE,71,9.0,10.0,75,0.00,,---,0.00,VWS V14.01,2013-04-22 04:31:00,
2013-04-22 00:36:00,46.8,39.7,30.50,East,79,9.0,9.0,76,0.00,,---,0.00,VWS V14.01,2013-04-22 04:36:00,
2013-04-22 00:41:00,46.6,39.5,30.51,ENE,76,7.0,8.0,76,0.00,,---,0.00,VWS V14.01,2013-04-22 04:41:00,
2013-04-22 00:46:00,46.4,39.6,30.50,ENE,71,5.0,7.0,77,0.00,,---,0.00,VWS V14.01,2013-04-22 04:46:00,
2013-04-22 00:51:00,46.1,39.3,30.50,ENE,69,7.0,8.0,77,0.00,,---,0.00,VWS V14.01,2013-04-22 04:51:00,
2013-04-22 00:56:00,45.9,39.1,30.50,ENE,75,7.0,8.0,77,0.00,,---,0.00,VWS V14.01,2013-04-22 04:56:00,
2013-04-22 01:00:00,45.9,38.8,30.50,ENE,67,9.0,10.0,76,0.00,,---,0.00,VWS V14.01,2013-04-22 05:00:00,
2013-04-22 01:05:00,45.8,38.3,30.50,ENE,62,8.0,9.0,75,0.00,,---,0.00,VWS V14.01,2013-04-22 05:05:00,
2013-04-22 01:10:00,45.7,38.2,30.50,ENE,63,7.0,7.0,75,0.00,,---,0.00,VWS V14.01,2013-04-22 05:10:00,
2013-04-22 01:15:00,45.6,38.2,30.49,ENE,77,8.0,8.0,75,0.00,,---,0.00,VWS V14.01,2013-04-22 05:15:00,
2013-04-22 01:20:00,45.4,38.0,30.50,ENE,62,8.0,10.0,75,0.00,,---,0.00,VWS V14.01,2013-04-22 05:20:00,
2013-04-22 01:25:00,45.2,37.8,30.50,NE,48,7.0,8.0,75,0.00,,---,0.00,VWS V14.01,2013-04-22 05:25:00,
2013-04-22 01:30:00,45.0,37.6,30.50,ENE,62,7.0,8.0,75,0.00,,---,0.00,VWS V14.01,2013-04-22 05:30:00,
2013-04-22 01:35:00,44.8,37.4,30.50,East,80,11.0,11.0,75,0.00,,---,0.00,VWS V14.01,2013-04-22 05:35:00,
2013-04-22 01:40:00,44.7,36.9,30.50,ENE,68,5.0,13.0,74,0.00,,---,0.00,VWS V14.01,2013-04-22 05:40:00,
2013-04-22 01:45:00,44.6,36.8,30.50,ENE,74,4.0,5.0,74,0.00,,---,0.00,VWS V14.01,2013-04-22 05:45:00,
2013-04-22 01:50:00,44.4,37.0,30.50,ENE,75,9.0,9.0,75,0.00,,---,0.00,VWS V14.01,2013-04-22 05:50:00,
2013-04-22 01:55:00,44.2,36.1,30.50,ENE,66,8.0,8.0,73,0.00,,---,0.00,VWS V14.01,2013-04-22 05:55:00,
2013-04-22 02:00:00,44.1,36.0,30.50,ENE,74,5.0,7.0,73,0.00,,---,0.00,VWS V14.01,2013-04-22 06:00:00,
2013-04-22 02:05:00,43.9,35.5,30.49,East,86,8.0,10.0,72,0.00,,---,0.00,VWS V14.01,2013-04-22 06:05:00,
2013-04-22 02:10:00,43.7,35.6,30.49,ENE,61,8.0,8.0,73,0.00,,---,0.00,VWS V14.01,2013-04-22 06:10:00,
2013-04-22 02:15:00,43.6,35.2,30.48,ENE,65,5.0,6.0,72,0.00,,---,0.00,VWS V14.01,2013-04-22 06:15:00,
2013-04-22 02:20:00,43.4,34.6,30.48,ENE,59,8.0,8.0,71,0.00,,---,0.00,VWS V14.01,2013-04-22 06:20:00,
2013-04-22 02:25:00,43.3,34.9,30.48,ENE,63,7.0,7.0,72,0.00,,---,0.00,VWS V14.01,2013-04-22 06:25:00,
2013-04-22 02:30:00,43.1,34.7,30.48,ENE,66,7.0,7.0,72,0.00,,---,0.00,VWS V14.01,2013-04-22 06:30:00,
2013-04-22 02:35:00,42.9,34.2,30.47,ENE,58,4.0,5.0,71,0.00,,---,0.00,VWS V14.01,2013-04-22 06:35:00,
2013-04-22 02:40:00,42.8,34.1,30.47,ENE,70,5.0,9.0,71,0.00,,---,0.00,VWS V14.01,2013-04-22 06:40:00,
2013-04-22 02:45:00,42.6,33.9,30.47,ENE,71,5.0,5.0,71,0.00,,---,0.00,VWS V14.01,2013-04-22 06:45:00,
2013-04-22 02:50:00,42.5,33.4,30.47,ENE,71,4.0,4.0,70,0.00,,---,0.00,VWS V14.01,2013-04-22 06:50:00,
2013-04-22 02:55:00,42.4,33.3,30.47,NE,53,4.0,6.0,70,0.00,,---,0.00,VWS V14.01,2013-04-22 06:55:00,
2013-04-22 03:00:00,42.3,32.9,30.47,ENE,64,7.0,7.0,69,0.00,,---,0.00,VWS V14.01,2013-04-22 07:00:00,
2013-04-22 03:05:00,42.2,32.8,30.47,ENE,73,4.0,5.0,69,0.00,,---,0.00,VWS V14.01,2013-04-22 07:05:00,
2013-04-22 03:10:00,42.0,32.9,30.46,NE,53,8.0,9.0,70,0.00,,---,0.00,VWS V14.01,2013-04-22 07:10:00,
2013-04-22 03:15:00,41.9,33.5,30.46,ENE,74,7.0,9.0,72,0.00,,---,0.00,VWS V14.01,2013-04-22 07:15:00,
2013-04-22 03:20:00,41.8,33.8,30.46,NE,55,5.0,9.0,73,0.00,,---,0.00,VWS V14.01,2013-04-22 07:20:00,
2013-04-22 03:25:00,41.6,33.9,30.45,East,83,7.0,10.0,74,0.00,,---,0.00,VWS V14.01,2013-04-22 07:25:00,
2013-04-22 03:30:00,41.4,34.1,30.45,ENE,67,5.0,7.0,75,0.00,,---,0.00,VWS V14.01,2013-04-22 07:30:00,
2013-04-22 03:35:00,41.2,33.9,30.45,NE,51,5.0,5.0,75,0.00,,---,0.00,VWS V14.01,2013-04-22 07:35:00,
2013-04-22 03:40:00,41.1,34.1,30.45,ENE,75,7.0,7.0,76,0.00,,---,0.00,VWS V14.01,2013-04-22 07:40:00,
2013-04-22 03:45:00,41.0,34.3,30.44,NE,55,5.0,7.0,77,0.00,,---,0.00,VWS V14.01,2013-04-22 07:45:00,
2013-04-22 03:50:00,40.9,34.3,30.44,ENE,63,7.0,8.0,77,0.00,,---,0.00,VWS V14.01,2013-04-22 07:50:00,
2013-04-22 03:55:00,40.7,34.4,30.44,NE,39,4.0,5.0,78,0.00,,---,0.00,VWS V14.01,2013-04-22 07:55:00,
2013-04-22 04:00:00,40.6,34.3,30.44,ENE,58,7.0,7.0,78,0.00,,---,0.00,VWS V14.01,2013-04-22 08:00:00,
2013-04-22 04:05:00,40.5,34.2,30.43,ENE,69,7.0,8.0,78,0.00,,---,0.00,VWS V14.01,2013-04-22 08:05:00,
2013-04-22 04:10:00,40.4,34.1,30.43,ENE,62,7.0,8.0,78,0.00,,---,0.00,VWS V14.01,2013-04-22 08:10:00,
2013-04-22 04:15:00,40.3,34.0,30.43,NE,44,4.0,5.0,78,0.00,,---,0.00,VWS V14.01,2013-04-22 08:15:00,
2013-04-22 04:20:00,40.3,34.0,30.44,NE,44,4.0,4.0,78,0.00,,---,0.00,VWS V14.01,2013-04-22 08:20:00,
2013-04-22 04:25:00,40.1,33.8,30.44,ENE,69,5.0,8.0,78,0.00,,---,0.00,VWS V14.01,2013-04-22 08:25:00,
2013-04-22 04:30:00,40.1,33.8,30.44,ENE,58,8.0,8.0,78,0.00,,---,0.00,VWS V14.01,2013-04-22 08:30:00,
2013-04-22 04:35:00,40.1,33.5,30.45,ENE,71,4.0,5.0,77,0.00,,---,0.00,VWS V14.01,2013-04-22 08:35:00,
2013-04-22 04:40:00,40.0,33.4,30.44,ENE,74,5.0,5.0,77,0.00,,---,0.00,VWS V14.01,2013-04-22 08:40:00,
2013-04-22 04:45:00,39.9,33.3,30.44,ENE,63,4.0,5.0,77,0.00,,---,0.00,VWS V14.01,2013-04-22 08:45:00,
2013-04-22 04:50:00,39.9,33.6,30.44,East,81,5.0,5.0,78,0.00,,---,0.00,VWS V14.01,2013-04-22 08:50:00,
2013-04-22 04:55:00,39.8,33.5,30.45,ENE,70,7.0,7.0,78,0.00,,---,0.00,VWS V14.01,2013-04-22 08:55:00,
2013-04-22 05:00:00,39.7,33.4,30.45,ENE,67,9.0,9.0,78,0.00,,---,0.00,VWS V14.01,2013-04-22 09:00:00,
2013-04-22 05:05:00,39.7,33.7,30.45,East,81,7.0,7.0,79,0.00,,---,0.00,VWS V14.01,2013-04-22 09:05:00,
2013-04-22 05:10:00,39.6,34.0,30.45,ENE,74,7.0,9.0,80,0.00,,---,0.00,VWS V14.01,2013-04-22 09:10:00,
2013-04-22 05:15:00,39.6,34.0,30.45,ENE,63,7.0,9.0,80,0.00,,---,0.00,VWS V14.01,2013-04-22 09:15:00,
2013-04-22 05:20:00,39.5,34.2,30.45,ENE,62,7.0,9.0,81,0.00,,---,0.00,VWS V14.01,2013-04-22 09:20:00,
2013-04-22 05:25:00,39.4,34.4,30.45,ENE,74,5.0,7.0,82,0.00,,---,0.00,VWS V14.01,2013-04-22 09:25:00,
2013-04-22 05:30:00,39.3,34.3,30.45,ENE,64,4.0,7.0,82,0.00,,---,0.00,VWS V14.01,2013-04-22 09:30:00,
2013-04-22 05:35:00,39.2,34.5,30.45,ENE,76,7.0,8.0,83,0.00,,---,0.00,VWS V14.01,2013-04-22 09:35:00,
2013-04-22 05:40:00,39.1,34.4,30.45,East,92,7.0,12.0,83,0.00,,---,0.00,VWS V14.01,2013-04-22 09:40:00,
2013-04-22 05:45:00,39.1,34.7,30.45,ENE,58,9.0,11.0,84,0.00,,---,0.00,VWS V14.01,2013-04-22 09:45:00,
2013-04-22 05:50:00,39.0,34.6,30.45,NE,47,5.0,7.0,84,0.00,,---,0.00,VWS V14.01,2013-04-22 09:50:00,
2013-04-22 05:55:00,39.0,34.6,30.45,ENE,63,7.0,7.0,84,0.00,,---,0.00,VWS V14.01,2013-04-22 09:55:00,
2013-04-22 06:00:00,38.9,34.8,30.45,NE,51,3.0,8.0,85,0.00,,---,0.00,VWS V14.01,2013-04-22 10:00:00,
2013-04-22 06:05:00,38.8,34.7,30.45,NE,55,4.0,4.0,85,0.00,,---,0.00,VWS V14.01,2013-04-22 10:05:00,
2013-04-22 06:10:00,38.8,34.7,30.45,NE,55,7.0,10.0,85,0.00,,---,0.00,VWS V14.01,2013-04-22 10:10:00,
2013-04-22 06:15:00,38.8,34.7,30.45,ENE,68,7.0,8.0,85,0.00,,---,0.00,VWS V14.01,2013-04-22 10:15:00,
2013-04-22 06:20:00,38.8,34.7,30.45,ENE,58,4.0,5.0,85,0.00,,---,0.00,VWS V14.01,2013-04-22 10:20:00,
2013-04-22 06:25:00,38.7,34.9,30.45,ENE,66,10.0,10.0,86,0.00,,---,0.00,VWS V14.01,2013-04-22 10:25:00,
2013-04-22 06:30:00,38.7,34.9,30.45,ENE,67,8.0,8.0,86,0.00,,---,0.00,VWS V14.01,2013-04-22 10:30:00,
2013-04-22 06:34:00,38.6,34.8,30.45,East,79,6.0,11.0,86,0.00,,---,0.00,VWS V14.01,2013-04-22 10:34:00,
2013-04-22 06:39:00,38.6,34.8,30.45,ENE,66,7.0,10.0,86,0.00,,---,0.00,VWS V14.01,2013-04-22 10:39:00,
2013-04-22 06:44:00,38.6,34.8,30.45,NE,36,5.0,8.0,86,0.00,,---,0.00,VWS V14.01,2013-04-22 10:44:00,
2013-04-22 06:49:00,38.7,34.9,30.44,ENE,58,5.0,8.0,86,0.00,,---,0.00,VWS V14.01,2013-04-22 10:49:00,
2013-04-22 06:54:00,38.7,34.9,30.45,ENE,71,7.0,8.0,86,0.00,,---,0.00,VWS V14.01,2013-04-22 10:54:00,
2013-04-22 06:59:00,38.9,34.8,30.44,ENE,62,5.0,8.0,85,0.00,,---,0.00,VWS V14.01,2013-04-22 10:59:00,
2013-04-22 07:04:00,39.1,35.0,30.44,ENE,62,11.0,11.0,85,0.00,,---,0.00,VWS V14.01,2013-04-22 11:04:00,
2013-04-22 07:09:00,39.2,34.8,30.44,NE,51,6.0,8.0,84,0.00,,---,0.00,VWS V14.01,2013-04-22 11:09:00,
2013-04-22 07:14:00,39.4,34.7,30.44,NE,55,6.0,8.0,83,0.00,,---,0.00,VWS V14.01,2013-04-22 11:14:00,
2013-04-22 07:19:00,39.5,34.8,30.44,NE,42,6.0,8.0,83,0.00,,---,0.00,VWS V14.01,2013-04-22 11:19:00,
2013-04-22 07:24:00,39.6,34.6,30.44,NE,49,7.0,8.0,82,0.00,,---,0.00,VWS V14.01,2013-04-22 11:24:00,
2013-04-22 07:29:00,39.8,34.8,30.44,NE,49,12.0,12.0,82,0.00,,---,0.00,VWS V14.01,2013-04-22 11:29:00,
2013-04-22 07:34:00,40.1,34.8,30.44,ENE,63,9.0,9.0,81,0.00,,---,0.00,VWS V14.01,2013-04-22 11:34:00,
2013-04-22 07:39:00,40.3,34.9,30.44,NE,53,4.0,11.0,81,0.00,,---,0.00,VWS V14.01,2013-04-22 11:39:00,
2013-04-22 07:44:00,40.6,34.9,30.44,NE,42,10.0,10.0,80,0.00,,---,0.00,VWS V14.01,2013-04-22 11:44:00,
2013-04-22 07:49:00,40.8,35.1,30.45,NE,55,8.0,10.0,80,0.00,,---,0.00,VWS V14.01,2013-04-22 11:49:00,
2013-04-22 07:54:00,41.0,35.0,30.44,ENE,58,10.0,10.0,79,0.00,,---,0.00,VWS V14.01,2013-04-22 11:54:00,
2013-04-22 07:59:00,41.2,35.2,30.44,NE,47,9.0,9.0,79,0.00,,---,0.00,VWS V14.01,2013-04-22 11:59:00,
2013-04-22 08:04:00,41.4,35.1,30.44,NE,42,7.0,8.0,78,0.00,,---,0.00,VWS V14.01,2013-04-22 12:04:00,
2013-04-22 08:09:00,41.8,35.8,30.45,NNE,29,5.0,8.0,79,0.00,,---,0.00,VWS V14.01,2013-04-22 12:09:00,
2013-04-22 08:14:00,42.0,35.7,30.45,ENE,67,8.0,9.0,78,0.00,,---,0.00,VWS V14.01,2013-04-22 12:14:00,
2013-04-22 08:19:00,42.1,35.8,30.46,NE,51,6.0,6.0,78,0.00,,---,0.00,VWS V14.01,2013-04-22 12:19:00,
2013-04-22 08:24:00,42.4,35.7,30.46,NE,55,6.0,7.0,77,0.00,,---,0.00,VWS V14.01,2013-04-22 12:24:00,
2013-04-22 08:29:00,42.9,36.5,30.46,ENE,76,4.0,5.0,78,0.00,,---,0.00,VWS V14.01,2013-04-22 12:29:00,
2013-04-22 08:34:00,43.3,36.3,30.46,NE,53,9.0,12.0,76,0.00,,---,0.00,VWS V14.01,2013-04-22 12:34:00,
2013-04-22 08:39:00,43.2,36.2,30.46,ENE,70,11.0,12.0,76,0.00,,---,0.00,VWS V14.01,2013-04-22 12:39:00,
2013-04-22 08:44:00,43.6,36.9,30.46,ENE,61,9.0,9.0,77,0.00,,---,0.00,VWS V14.01,2013-04-22 12:44:00,
2013-04-22 08:49:00,44.0,36.9,30.46,NE,52,6.0,9.0,76,0.00,,---,0.00,VWS V14.01,2013-04-22 12:49:00,
2013-04-22 08:54:00,44.1,36.7,30.45,ENE,57,5.0,10.0,75,0.00,,---,0.00,VWS V14.01,2013-04-22 12:54:00,
2013-04-22 08:59:00,44.2,37.1,30.45,NNE,24,6.0,7.0,76,0.00,,---,0.00,VWS V14.01,2013-04-22 12:59:00,
2013-04-22 09:04:00,44.6,37.5,30.45,East,81,6.0,6.0,76,0.00,,---,0.00,VWS V14.01,2013-04-22 13:04:00,
2013-04-22 09:09:00,45.1,37.7,30.46,ENE,74,4.0,8.0,75,0.00,,---,0.00,VWS V14.01,2013-04-22 13:09:00,
2013-04-22 09:14:00,45.1,37.3,30.46,ENE,58,10.0,10.0,74,0.00,,---,0.00,VWS V14.01,2013-04-22 13:14:00,
2013-04-22 09:19:00,45.2,37.8,30.46,NE,38,12.0,13.0,75,0.00,,---,0.00,VWS V14.01,2013-04-22 13:19:00,
2013-04-22 09:24:00,45.3,37.9,30.45,ENE,66,9.0,9.0,75,0.00,,---,0.00,VWS V14.01,2013-04-22 13:24:00,
2013-04-22 09:29:00,45.5,37.7,30.45,ENE,69,12.0,13.0,74,0.00,,---,0.00,VWS V14.01,2013-04-22 13:29:00,
2013-04-22 09:34:00,45.8,38.3,30.45,NE,50,4.0,7.0,75,0.00,,---,0.00,VWS V14.01,2013-04-22 13:34:00,
2013-04-22 09:39:00,46.0,38.2,30.45,NNE,24,6.0,11.0,74,0.00,,---,0.00,VWS V14.01,2013-04-22 13:39:00,
2013-04-22 09:44:00,46.2,38.0,30.45,NE,43,6.0,7.0,73,0.00,,---,0.00,VWS V14.01,2013-04-22 13:44:00,
2013-04-22 09:49:00,46.6,38.8,30.45,ENE,69,8.0,9.0,74,0.00,,---,0.00,VWS V14.01,2013-04-22 13:49:00,
2013-04-22 09:54:00,46.8,38.6,30.45,ENE,73,10.0,10.0,73,0.00,,---,0.00,VWS V14.01,2013-04-22 13:54:00,
2013-04-22 09:59:00,47.1,38.5,30.45,ENE,59,10.0,15.0,72,0.00,,---,0.00,VWS V14.01,2013-04-22 13:59:00,
2013-04-22 10:04:00,47.1,38.9,30.45,NE,38,7.0,10.0,73,0.00,,---,0.00,VWS V14.01,2013-04-22 14:04:00,
2013-04-22 10:09:00,47.5,39.6,30.45,ENE,57,9.0,10.0,74,0.00,,---,0.00,VWS V14.01,2013-04-22 14:09:00,
2013-04-22 10:14:00,47.8,39.2,30.45,NE,42,4.0,6.0,72,0.00,,---,0.00,VWS V14.01,2013-04-22 14:14:00,
2013-04-22 10:19:00,47.9,39.7,30.45,NE,53,10.0,13.0,73,0.00,,---,0.00,VWS V14.01,2013-04-22 14:19:00,
2013-04-22 10:24:00,47.9,39.7,30.45,ENE,61,7.0,7.0,73,0.00,,---,0.00,VWS V14.01,2013-04-22 14:24:00,
2013-04-22 10:29:00,48.5,40.2,30.45,ENE,67,10.0,10.0,73,0.00,,---,0.00,VWS V14.01,2013-04-22 14:29:00,
2013-04-22 10:34:00,49.1,40.1,30.45,NE,44,4.0,4.0,71,0.00,,---,0.00,VWS V14.01,2013-04-22 14:34:00,
2013-04-22 10:39:00,49.2,40.2,30.45,NE,39,9.0,9.0,71,0.00,,---,0.00,VWS V14.01,2013-04-22 14:39:00,
2013-04-22 10:44:00,49.5,40.1,30.45,NE,48,10.0,11.0,70,0.00,,---,0.00,VWS V14.01,2013-04-22 14:44:00,
2013-04-22 10:49:00,49.8,40.8,30.45,NE,42,10.0,10.0,71,0.00,,---,0.00,VWS V14.01,2013-04-22 14:49:00,
2013-04-22 10:54:00,49.6,40.2,30.44,NE,42,9.0,11.0,70,0.00,,---,0.00,VWS V14.01,2013-04-22 14:54:00,
2013-04-22 10:59:00,49.8,40.4,30.44,ENE,61,14.0,14.0,70,0.00,,---,0.00,VWS V14.01,2013-04-22 14:59:00,
2013-04-22 11:04:00,49.7,40.3,30.44,ENE,57,8.0,8.0,70,0.00,,---,0.00,VWS V14.01,2013-04-22 15:04:00,
2013-04-22 11:09:00,50.0,41.0,30.44,ENE,63,7.0,8.0,71,0.00,,---,0.00,VWS V14.01,2013-04-22 15:09:00,
2013-04-22 11:14:00,50.2,40.4,30.44,NE,42,8.0,8.0,69,0.00,,---,0.00,VWS V14.01,2013-04-22 15:14:00,
2013-04-22 11:19:00,50.1,40.7,30.45,NE,48,5.0,5.0,70,0.00,,---,0.00,VWS V14.01,2013-04-22 15:19:00,
2013-04-22 11:24:00,50.5,40.7,30.45,ENE,58,9.0,12.0,69,0.00,,---,0.00,VWS V14.01,2013-04-22 15:24:00,
2013-04-22 11:29:00,50.2,40.4,30.45,NE,49,6.0,6.0,69,0.00,,---,0.00,VWS V14.01,2013-04-22 15:29:00,
2013-04-22 11:34:00,50.3,40.5,30.45,ENE,67,13.0,13.0,69,0.00,,---,0.00,VWS V14.01,2013-04-22 15:34:00,
2013-04-22 11:39:00,50.4,40.6,30.45,ENE,70,7.0,8.0,69,0.00,,---,0.00,VWS V14.01,2013-04-22 15:39:00,
2013-04-22 11:44:00,50.6,40.8,30.44,NE,49,5.0,7.0,69,0.00,,---,0.00,VWS V14.01,2013-04-22 15:44:00,
2013-04-22 11:49:00,51.2,41.4,30.44,NE,47,9.0,10.0,69,0.00,,---,0.00,VWS V14.01,2013-04-22 15:49:00,
2013-04-22 11:54:00,51.6,41.4,30.44,ENE,58,5.0,10.0,68,0.00,,---,0.00,VWS V14.01,2013-04-22 15:54:00,
2013-04-22 11:59:00,51.4,40.8,30.43,NE,34,9.0,9.0,67,0.00,,---,0.00,VWS V14.01,2013-04-22 15:59:00,
2013-04-22 12:04:00,51.9,40.9,30.43,NE,47,12.0,18.0,66,0.00,,---,0.00,VWS V14.01,2013-04-22 16:04:00,
2013-04-22 12:09:00,51.5,40.9,30.43,NE,38,6.0,11.0,67,0.00,,---,0.00,VWS V14.01,2013-04-22 16:09:00,
2013-04-22 12:14:00,51.7,40.7,30.43,East,81,11.0,16.0,66,0.00,,---,0.00,VWS V14.01,2013-04-22 16:14:00,
2013-04-22 12:19:00,52.1,41.1,30.42,East,80,8.0,9.0,66,0.00,,---,0.00,VWS V14.01,2013-04-22 16:19:00,
2013-04-22 12:24:00,52.0,40.6,30.42,NE,34,7.0,10.0,65,0.00,,---,0.00,VWS V14.01,2013-04-22 16:24:00,
2013-04-22 12:29:00,52.3,40.9,30.42,NE,45,9.0,11.0,65,0.00,,---,0.00,VWS V14.01,2013-04-22 16:29:00,
2013-04-22 12:34:00,52.4,41.0,30.42,ENE,58,8.0,13.0,65,0.00,,---,0.00,VWS V14.01,2013-04-22 16:34:00,
2013-04-22 12:39:00,52.6,40.8,30.41,ENE,74,11.0,15.0,64,0.00,,---,0.00,VWS V14.01,2013-04-22 16:39:00,
2013-04-22 12:44:00,52.8,41.4,30.41,NE,43,6.0,7.0,65,0.00,,---,0.00,VWS V14.01,2013-04-22 16:44:00,
2013-04-22 12:49:00,53.0,41.2,30.41,NE,51,8.0,9.0,64,0.00,,---,0.00,VWS V14.01,2013-04-22 16:49:00,
2013-04-22 12:54:00,53.2,40.5,30.40,ENE,67,8.0,10.0,62,0.00,,---,0.00,VWS V14.01,2013-04-22 16:54:00,
2013-04-22 12:59:00,53.6,40.5,30.40,ENE,71,9.0,14.0,61,0.00,,---,0.00,VWS V14.01,2013-04-22 16:59:00,
2013-04-22 13:04:00,53.8,41.5,30.40,ENE,76,8.0,13.0,63,0.00,,---,0.00,VWS V14.01,2013-04-22 17:04:00,
2013-04-22 13:09:00,53.7,41.4,30.39,NE,50,8.0,11.0,63,0.00,,---,0.00,VWS V14.01,2013-04-22 17:09:00,
2013-04-22 13:13:00,54.0,41.7,30.39,NE,51,11.0,14.0,63,0.00,,---,0.00,VWS V14.01,2013-04-22 17:13:00,
2013-04-22 13:18:00,54.4,41.7,30.39,ENE,63,14.0,14.0,62,0.00,,---,0.00,VWS V14.01,2013-04-22 17:18:00,
2013-04-22 13:23:00,54.7,42.0,30.38,NNE,31,5.0,10.0,62,0.00,,---,0.00,VWS V14.01,2013-04-22 17:23:00,
2013-04-22 13:28:00,55.3,41.7,30.38,ENE,72,12.0,12.0,60,0.00,,---,0.00,VWS V14.01,2013-04-22 17:28:00,
2013-04-22 13:33:00,55.4,41.3,30.38,NE,50,10.0,10.0,59,0.00,,---,0.00,VWS V14.01,2013-04-22 17:33:00,
2013-04-22 13:38:00,55.8,41.3,30.38,NE,46,10.0,10.0,58,0.00,,---,0.00,VWS V14.01,2013-04-22 17:38:00,
2013-04-22 13:43:00,56.0,40.5,30.38,ENE,66,14.0,16.0,56,0.00,,---,0.00,VWS V14.01,2013-04-22 17:43:00,
2013-04-22 13:48:00,55.6,40.6,30.37,ENE,74,9.0,14.0,57,0.00,,---,0.00,VWS V14.01,2013-04-22 17:48:00,
2013-04-22 13:53:00,56.4,41.4,30.37,NE,43,5.0,9.0,57,0.00,,---,0.00,VWS V14.01,2013-04-22 17:53:00,
2013-04-22 13:58:00,56.5,40.5,30.37,East,82,6.0,10.0,55,0.00,,---,0.00,VWS V14.01,2013-04-22 17:58:00,
2013-04-22 14:03:00,57.0,41.5,30.37,NE,44,12.0,12.0,56,0.00,,---,0.00,VWS V14.01,2013-04-22 18:03:00,
2013-04-22 14:08:00,57.0,41.5,30.36,ENE,74,4.0,7.0,56,0.00,,---,0.00,VWS V14.01,2013-04-22 18:08:00,
2013-04-22 14:13:00,57.3,40.8,30.36,ENE,70,15.0,17.0,54,0.00,,---,0.00,VWS V14.01,2013-04-22 18:13:00,
2013-04-22 14:18:00,57.4,40.9,30.36,NE,55,10.0,17.0,54,0.00,,---,0.00,VWS V14.01,2013-04-22 18:18:00,
2013-04-22 14:23:00,57.5,39.0,30.36,NE,47,8.0,9.0,50,0.00,,---,0.00,VWS V14.01,2013-04-22 18:23:00,
2013-04-22 14:28:00,58.0,40.5,30.35,ENE,59,5.0,9.0,52,0.00,,---,0.00,VWS V14.01,2013-04-22 18:28:00,
2013-04-22 14:33:00,58.9,40.3,30.35,NE,44,7.0,9.0,50,0.00,,---,0.00,VWS V14.01,2013-04-22 18:33:00,
2013-04-22 14:38:00,58.6,40.0,30.35,East,97,5.0,9.0,50,0.00,,---,0.00,VWS V14.01,2013-04-22 18:38:00,
2013-04-22 14:43:00,58.6,40.0,30.35,NE,46,6.0,11.0,50,0.00,,---,0.00,VWS V14.01,2013-04-22 18:43:00,
2013-04-22 14:48:00,58.6,39.5,30.35,ENE,73,10.0,11.0,49,0.00,,---,0.00,VWS V14.01,2013-04-22 18:48:00,
2013-04-22 14:53:00,58.5,39.4,30.34,NE,49,7.0,13.0,49,0.00,,---,0.00,VWS V14.01,2013-04-22 18:53:00,
2013-04-22 14:58:00,58.7,40.1,30.34,ENE,71,5.0,5.0,50,0.00,,---,0.00,VWS V14.01,2013-04-22 18:58:00,
2013-04-22 15:03:00,58.6,38.5,30.34,East,84,13.0,14.0,47,0.00,,---,0.00,VWS V14.01,2013-04-22 19:03:00,
2013-04-22 15:08:00,58.3,39.8,30.34,ENE,63,9.0,9.0,50,0.00,,---,0.00,VWS V14.01,2013-04-22 19:08:00,
2013-04-22 15:13:00,58.5,40.5,30.34,East,80,7.0,7.0,51,0.00,,---,0.00,VWS V14.01,2013-04-22 19:13:00,
2013-04-22 15:18:00,59.0,40.4,30.34,NE,39,6.0,6.0,50,0.00,,---,0.00,VWS V14.01,2013-04-22 19:18:00,
2013-04-22 15:23:00,58.9,39.3,30.34,ENE,62,8.0,8.0,48,0.00,,---,0.00,VWS V14.01,2013-04-22 19:23:00,
2013-04-22 15:28:00,58.7,39.6,30.33,NE,51,2.0,8.0,49,0.00,,---,0.00,VWS V14.01,2013-04-22 19:28:00,
2013-04-22 15:33:00,58.8,38.6,30.33,ENE,78,13.0,16.0,47,0.00,,---,0.00,VWS V14.01,2013-04-22 19:33:00,
2013-04-22 15:38:00,58.6,39.5,30.33,ENE,62,7.0,7.0,49,0.00,,---,0.00,VWS V14.01,2013-04-22 19:38:00,
2013-04-22 15:43:00,58.6,39.5,30.33,ENE,58,8.0,10.0,49,0.00,,---,0.00,VWS V14.01,2013-04-22 19:43:00,
2013-04-22 15:48:00,58.6,39.5,30.33,NNE,28,5.0,6.0,49,0.00,,---,0.00,VWS V14.01,2013-04-22 19:48:00,
2013-04-22 15:53:00,58.7,40.1,30.33,ENE,58,7.0,10.0,50,0.00,,---,0.00,VWS V14.01,2013-04-22 19:53:00,
2013-04-22 15:58:00,58.8,40.7,30.32,ENE,70,10.0,10.0,51,0.00,,---,0.00,VWS V14.01,2013-04-22 19:58:00,
2013-04-22 16:03:00,58.8,41.2,30.32,NE,39,10.0,12.0,52,0.00,,---,0.00,VWS V14.01,2013-04-22 20:03:00,
2013-04-22 16:08:00,58.9,40.3,30.32,NE,47,7.0,12.0,50,0.00,,---,0.00,VWS V14.01,2013-04-22 20:08:00,
2013-04-22 16:13:00,59.5,40.3,30.32,NNE,12,4.0,5.0,49,0.00,,---,0.00,VWS V14.01,2013-04-22 20:13:00,
2013-04-22 16:18:00,59.8,40.6,30.32,East,80,9.0,12.0,49,0.00,,---,0.00,VWS V14.01,2013-04-22 20:18:00,
2013-04-22 16:23:00,59.6,40.4,30.31,ENE,74,9.0,11.0,49,0.00,,---,0.00,VWS V14.01,2013-04-22 20:23:00,
2013-04-22 16:28:00,59.6,39.9,30.31,ENE,60,11.0,13.0,48,0.00,,---,0.00,VWS V14.01,2013-04-22 20:28:00,
2013-04-22 16:33:00,59.6,40.4,30.31,NE,34,6.0,10.0,49,0.00,,---,0.00,VWS V14.01,2013-04-22 20:33:00,
2013-04-22 16:38:00,59.9,41.2,30.31,ENE,67,8.0,8.0,50,0.00,,---,0.00,VWS V14.01,2013-04-22 20:38:00,
2013-04-22 16:43:00,59.9,41.8,30.31,ENE,65,12.0,12.0,51,0.00,,---,0.00,VWS V14.01,2013-04-22 20:43:00,
2013-04-22 16:48:00,59.7,41.6,30.31,East,81,8.0,10.0,51,0.00,,---,0.00,VWS V14.01,2013-04-22 20:48:00,
2013-04-22 16:53:00,59.6,41.5,30.31,ENE,76,11.0,11.0,51,0.00,,---,0.00,VWS V14.01,2013-04-22 20:53:00,
2013-04-22 16:58:00,59.3,41.7,30.31,NE,42,6.0,8.0,52,0.00,,---,0.00,VWS V14.01,2013-04-22 20:58:00,
2013-04-22 17:03:00,59.0,41.4,30.31,NE,50,8.0,8.0,52,0.00,,---,0.00,VWS V14.01,2013-04-22 21:03:00,
2013-04-22 17:08:00,59.1,42.0,30.30,ENE,58,9.0,9.0,53,0.00,,---,0.00,VWS V14.01,2013-04-22 21:08:00,
2013-04-22 17:13:00,59.2,42.1,30.30,NNE,16,10.0,10.0,53,0.00,,---,0.00,VWS V14.01,2013-04-22 21:13:00,
2013-04-22 17:18:00,59.2,42.1,30.30,NNE,33,7.0,7.0,53,0.00,,---,0.00,VWS V14.01,2013-04-22 21:18:00,
2013-04-22 17:23:00,59.2,42.1,30.30,ENE,66,9.0,9.0,53,0.00,,---,0.00,VWS V14.01,2013-04-22 21:23:00,
2013-04-22 17:28:00,59.2,42.1,30.30,ENE,61,11.0,11.0,53,0.00,,---,0.00,VWS V14.01,2013-04-22 21:28:00,
2013-04-22 17:33:00,59.0,41.9,30.30,NE,44,9.0,10.0,53,0.00,,---,0.00,VWS V14.01,2013-04-22 21:33:00,
2013-04-22 17:38:00,59.0,42.4,30.30,NE,38,6.0,8.0,54,0.00,,---,0.00,VWS V14.01,2013-04-22 21:38:00,
2013-04-22 17:43:00,58.9,42.8,30.30,NE,48,7.0,11.0,55,0.00,,---,0.00,VWS V14.01,2013-04-22 21:43:00,
2013-04-22 17:48:00,58.8,42.7,30.30,ENE,64,7.0,7.0,55,0.00,,---,0.00,VWS V14.01,2013-04-22 21:48:00,
2013-04-22 17:53:00,58.7,43.1,30.30,NE,47,4.0,4.0,56,0.00,,---,0.00,VWS V14.01,2013-04-22 21:53:00,
2013-04-22 17:58:00,58.9,43.2,30.30,NE,47,7.0,12.0,56,0.00,,---,0.00,VWS V14.01,2013-04-22 21:58:00,
2013-04-22 18:03:00,58.8,43.2,30.29,ENE,57,9.0,11.0,56,0.00,,---,0.00,VWS V14.01,2013-04-22 22:03:00,
2013-04-22 18:08:00,58.7,43.5,30.30,ENE,57,9.0,11.0,57,0.00,,---,0.00,VWS V14.01,2013-04-22 22:08:00,
2013-04-22 18:13:00,58.9,43.7,30.29,ENE,61,9.0,11.0,57,0.00,,---,0.00,VWS V14.01,2013-04-22 22:13:00,
2013-04-22 18:18:00,59.0,44.3,30.29,ENE,63,4.0,7.0,58,0.00,,---,0.00,VWS V14.01,2013-04-22 22:18:00,
2013-04-22 18:23:00,58.9,43.7,30.29,ENE,74,7.0,11.0,57,0.00,,---,0.00,VWS V14.01,2013-04-22 22:23:00,
2013-04-22 18:28:00,58.6,43.9,30.29,ENE,57,9.0,13.0,58,0.00,,---,0.00,VWS V14.01,2013-04-22 22:28:00,
2013-04-22 18:33:00,58.3,44.5,30.29,ENE,61,8.0,8.0,60,0.00,,---,0.00,VWS V14.01,2013-04-22 22:33:00,
2013-04-22 18:38:00,58.0,44.2,30.29,ENE,61,11.0,16.0,60,0.00,,---,0.00,VWS V14.01,2013-04-22 22:38:00,
2013-04-22 18:43:00,57.7,44.4,30.30,ENE,74,10.0,13.0,61,0.00,,---,0.00,VWS V14.01,2013-04-22 22:43:00,
2013-04-22 18:48:00,57.5,44.2,30.30,NE,50,5.0,9.0,61,0.00,,---,0.00,VWS V14.01,2013-04-22 22:48:00,
2013-04-22 18:53:00,57.5,44.2,30.30,NE,47,11.0,11.0,61,0.00,,---,0.00,VWS V14.01,2013-04-22 22:53:00,
2013-04-22 18:58:00,57.3,44.4,30.30,NE,51,13.0,13.0,62,0.00,,---,0.00,VWS V14.01,2013-04-22 22:58:00,
2013-04-22 19:03:00,57.1,44.2,30.30,ENE,76,8.0,13.0,62,0.00,,---,0.00,VWS V14.01,2013-04-22 23:03:00,
2013-04-22 19:08:00,57.0,44.1,30.30,ENE,73,12.0,13.0,62,0.00,,---,0.00,VWS V14.01,2013-04-22 23:08:00,
2013-04-22 19:13:00,56.8,43.9,30.30,ENE,67,7.0,8.0,62,0.00,,---,0.00,VWS V14.01,2013-04-22 23:13:00,
2013-04-22 19:17:00,56.7,44.3,30.30,ENE,74,10.0,10.0,63,0.00,,---,0.00,VWS V14.01,2013-04-22 23:17:00,
2013-04-22 19:22:00,56.6,44.6,30.30,ENE,66,10.0,11.0,64,0.00,,---,0.00,VWS V14.01,2013-04-22 23:22:00,
2013-04-22 19:27:00,56.5,44.5,30.30,ENE,65,13.0,13.0,64,0.00,,---,0.00,VWS V14.01,2013-04-22 23:27:00,
2013-04-22 19:32:00,56.3,44.3,30.30,ENE,69,8.0,10.0,64,0.00,,---,0.00,VWS V14.01,2013-04-22 23:32:00,
2013-04-22 19:37:00,56.2,44.2,30.30,ENE,59,11.0,11.0,64,0.00,,---,0.00,VWS V14.01,2013-04-22 23:37:00,
2013-04-22 19:42:00,56.1,44.5,30.31,ENE,64,9.0,10.0,65,0.00,,---,0.00,VWS V14.01,2013-04-22 23:42:00,
2013-04-22 19:47:00,56.0,44.8,30.31,NE,47,4.0,7.0,66,0.00,,---,0.00,VWS V14.01,2013-04-22 23:47:00,
2013-04-22 19:52:00,55.9,44.7,30.31,ENE,57,5.0,12.0,66,0.00,,---,0.00,VWS V14.01,2013-04-22 23:52:00,
2013-04-22 19:57:00,55.7,44.5,30.31,ENE,57,7.0,7.0,66,0.00,,---,0.00,VWS V14.01,2013-04-22 23:57:00,
2013-04-22 20:02:00,55.5,44.7,30.31,NE,55,7.0,12.0,67,0.00,,---,0.00,VWS V14.01,2013-04-23 00:02:00,
2013-04-22 20:07:00,55.4,44.6,30.32,East,101,7.0,10.0,67,0.00,,---,0.00,VWS V14.01,2013-04-23 00:07:00,
2013-04-22 20:12:00,55.3,44.9,30.32,ENE,66,8.0,9.0,68,0.00,,---,0.00,VWS V14.01,2013-04-23 00:12:00,
2013-04-22 20:17:00,55.1,44.7,30.32,NE,54,6.0,8.0,68,0.00,,---,0.00,VWS V14.01,2013-04-23 00:17:00,
2013-04-22 20:22:00,55.1,44.7,30.32,ENE,62,4.0,9.0,68,0.00,,---,0.00,VWS V14.01,2013-04-23 00:22:00,
2013-04-22 20:27:00,55.0,44.7,30.32,ENE,77,9.0,11.0,68,0.00,,---,0.00,VWS V14.01,2013-04-23 00:27:00,
2013-04-22 20:32:00,54.9,44.5,30.32,East,80,6.0,7.0,68,0.00,,---,0.00,VWS V14.01,2013-04-23 00:32:00,
2013-04-22 20:37:00,54.8,44.5,30.32,ENE,63,8.0,8.0,68,0.00,,---,0.00,VWS V14.01,2013-04-23 00:37:00,
2013-04-22 20:42:00,54.7,44.4,30.32,ENE,68,13.0,13.0,68,0.00,,---,0.00,VWS V14.01,2013-04-23 00:42:00,
2013-04-22 20:47:00,54.6,44.7,30.32,East,90,11.0,11.0,69,0.00,,---,0.00,VWS V14.01,2013-04-23 00:47:00,
2013-04-22 20:52:00,54.5,44.5,30.32,ENE,64,5.0,7.0,69,0.00,,---,0.00,VWS V14.01,2013-04-23 00:52:00,
2013-04-22 20:57:00,54.4,44.5,30.32,ENE,62,7.0,8.0,69,0.00,,---,0.00,VWS V14.01,2013-04-23 00:57:00,
2013-04-22 21:02:00,54.3,44.4,30.32,ENE,58,7.0,7.0,69,0.00,,---,0.00,VWS V14.01,2013-04-23 01:02:00,
2013-04-22 21:07:00,54.2,44.3,30.32,NE,54,9.0,12.0,69,0.00,,---,0.00,VWS V14.01,2013-04-23 01:07:00,
2013-04-22 21:12:00,54.1,44.5,30.32,ENE,70,7.0,8.0,70,0.00,,---,0.00,VWS V14.01,2013-04-23 01:12:00,
2013-04-22 21:17:00,53.9,44.3,30.32,ENE,63,8.0,9.0,70,0.00,,---,0.00,VWS V14.01,2013-04-23 01:17:00,
2013-04-22 21:22:00,53.7,44.5,30.33,ENE,71,8.0,8.0,71,0.00,,---,0.00,VWS V14.01,2013-04-23 01:22:00,
2013-04-22 21:27:00,53.4,45.0,30.33,ENE,71,7.0,13.0,73,0.00,,---,0.00,VWS V14.01,2013-04-23 01:27:00,
2013-04-22 21:32:00,53.0,45.0,30.33,ENE,62,5.0,8.0,74,0.00,,---,0.00,VWS V14.01,2013-04-23 01:32:00,
2013-04-22 21:37:00,52.6,45.3,30.33,ENE,71,7.0,10.0,76,0.00,,---,0.00,VWS V14.01,2013-04-23 01:37:00,
2013-04-22 21:42:00,52.2,45.2,30.33,ENE,64,9.0,10.0,77,0.00,,---,0.00,VWS V14.01,2013-04-23 01:42:00,
2013-04-22 21:47:00,52.1,45.5,30.33,NE,53,6.0,6.0,78,0.00,,---,0.00,VWS V14.01,2013-04-23 01:47:00,
2013-04-22 21:52:00,51.9,45.6,30.33,ENE,70,10.0,12.0,79,0.00,,---,0.00,VWS V14.01,2013-04-23 01:52:00,
2013-04-22 21:57:00,51.7,45.4,30.34,ENE,65,10.0,10.0,79,0.00,,---,0.00,VWS V14.01,2013-04-23 01:57:00,
2013-04-22 22:02:00,51.5,45.5,30.34,ENE,76,4.0,8.0,80,0.00,,---,0.00,VWS V14.01,2013-04-23 02:02:00,
2013-04-22 22:07:00,51.4,45.5,30.33,ENE,61,4.0,5.0,80,0.00,,---,0.00,VWS V14.01,2013-04-23 02:07:00,
2013-04-22 22:12:00,51.3,45.7,30.33,NE,51,5.0,7.0,81,0.00,,---,0.00,VWS V14.01,2013-04-23 02:12:00,
2013-04-22 22:17:00,51.1,45.8,30.33,ENE,71,10.0,13.0,82,0.00,,---,0.00,VWS V14.01,2013-04-23 02:17:00,
2013-04-22 22:22:00,51.0,45.7,30.33,NE,53,6.0,11.0,82,0.00,,---,0.00,VWS V14.01,2013-04-23 02:22:00,
2013-04-22 22:27:00,50.8,45.8,30.33,ENE,66,5.0,5.0,83,0.00,,---,0.00,VWS V14.01,2013-04-23 02:27:00,
2013-04-22 22:32:00,50.7,46.0,30.33,NE,47,5.0,6.0,84,0.00,,---,0.00,VWS V14.01,2013-04-23 02:32:00,
2013-04-22 22:37:00,50.5,46.2,30.33,NE,55,6.0,8.0,85,0.00,,---,0.00,VWS V14.01,2013-04-23 02:37:00,
2013-04-22 22:42:00,50.3,46.0,30.33,ENE,62,9.0,9.0,85,0.00,,---,0.00,VWS V14.01,2013-04-23 02:42:00,
2013-04-22 22:47:00,50.3,46.0,30.33,ENE,60,4.0,5.0,85,0.00,,---,0.00,VWS V14.01,2013-04-23 02:47:00,
2013-04-22 22:52:00,50.3,45.7,30.32,ENE,57,7.0,8.0,84,0.00,,---,0.00,VWS V14.01,2013-04-23 02:52:00,
2013-04-22 22:57:00,50.3,45.7,30.32,NE,43,7.0,7.0,84,0.00,,---,0.00,VWS V14.01,2013-04-23 02:57:00,
2013-04-22 23:02:00,50.3,46.0,30.32,ENE,66,4.0,8.0,85,0.00,,---,0.00,VWS V14.01,2013-04-23 03:02:00,
2013-04-22 23:07:00,50.2,45.9,30.32,NE,47,8.0,11.0,85,0.00,,---,0.00,VWS V14.01,2013-04-23 03:07:00,
2013-04-22 23:12:00,50.3,45.7,30.32,NE,36,4.0,5.0,84,0.00,,---,0.00,VWS V14.01,2013-04-23 03:12:00,
2013-04-22 23:17:00,50.2,45.9,30.31,ENE,57,4.0,4.0,85,0.00,,---,0.00,VWS V14.01,2013-04-23 03:17:00,
2013-04-22 23:22:00,50.2,45.9,30.31,NNE,26,6.0,6.0,85,0.00,,---,0.00,VWS V14.01,2013-04-23 03:22:00,
2013-04-22 23:27:00,50.1,45.8,30.31,NE,42,5.0,7.0,85,0.00,,---,0.00,VWS V14.01,2013-04-23 03:27:00,
2013-04-22 23:32:00,49.9,45.9,30.31,ENE,67,7.0,9.0,86,0.00,,---,0.00,VWS V14.01,2013-04-23 03:32:00,
2013-04-22 23:37:00,49.7,45.7,30.31,ENE,60,3.0,4.0,86,0.00,,---,0.00,VWS V14.01,2013-04-23 03:37:00,
2013-04-22 23:42:00,49.6,45.6,30.31,ENE,57,4.0,7.0,86,0.00,,---,0.00,VWS V14.01,2013-04-23 03:42:00,
2013-04-22 23:47:00,49.6,45.6,30.31,NNE,26,3.0,3.0,86,0.00,,---,0.00,VWS V14.01,2013-04-23 03:47:00,
2013-04-22 23:52:00,49.7,45.7,30.31,ENE,67,5.0,8.0,86,0.00,,---,0.00,VWS V14.01,2013-04-23 03:52:00,
2013-04-22 23:57:00,49.8,45.5,30.31,NE,47,5.0,6.0,85,0.00,,---,0.00,VWS V14.01,2013-04-23 03:57:00,